sensor_id;sensor_type;location;lat;lon;timestamp;P1;durP1;ratioP1;P2;durP2;ratioP2
34499;SDS011;20745;50.882;6.962;2023-03-14T00:00:12;11.45;;;2.10;;
34499;SDS011;20745;50.882;6.962;2023-03-14T00:02:40;13.15;;;2.30;;
34499;SDS011;20745;50.882;6.962;2023-03-14T00:05:07;16.13;;;1.80;;
34499;SDS011;20745;50.882;6.962;2023-03-14T00:07:35;13.57;;;2.00;;
34499;SDS011;20745;50.882;6.962;2023-03-14T00:10:10;10.52;;;2.13;;
34499;SDS011;20745;50.882;6.962;2023-03-14T00:12:38;10.75;;;1.80;;
34499;SDS011;20745;50.882;6.962;2023-03-14T00:15:05;5.90;;;1.52;;
34499;SDS011;20745;50.882;6.962;2023-03-14T00:17:33;10.38;;;1.70;;
34499;SDS011;20745;50.882;6.962;2023-03-14T00:20:01;10.18;;;1.75;;
34499;SDS011;20745;50.882;6.962;2023-03-14T00:22:34;12.15;;;2.13;;
34499;SDS011;20745;50.882;6.962;2023-03-14T00:25:01;10.05;;;1.80;;
34499;SDS011;20745;50.882;6.962;2023-03-14T00:27:29;13.02;;;1.88;;
34499;SDS011;20745;50.882;6.962;2023-03-14T00:29:55;15.45;;;2.70;;
34499;SDS011;20745;50.882;6.962;2023-03-14T00:32:22;15.63;;;2.08;;
34499;SDS011;20745;50.882;6.962;2023-03-14T00:34:48;11.85;;;2.00;;
34499;SDS011;20745;50.882;6.962;2023-03-14T00:37:15;9.02;;;1.70;;
34499;SDS011;20745;50.882;6.962;2023-03-14T00:39:41;12.45;;;2.05;;
34499;SDS011;20745;50.882;6.962;2023-03-14T00:42:08;14.57;;;2.10;;
34499;SDS011;20745;50.882;6.962;2023-03-14T00:44:34;13.48;;;2.33;;
34499;SDS011;20745;50.882;6.962;2023-03-14T00:47:01;13.98;;;2.10;;
34499;SDS011;20745;50.882;6.962;2023-03-14T00:49:27;7.57;;;1.38;;
34499;SDS011;20745;50.882;6.962;2023-03-14T00:51:54;9.57;;;1.45;;
34499;SDS011;20745;50.882;6.962;2023-03-14T00:54:20;12.23;;;2.22;;
34499;SDS011;20745;50.882;6.962;2023-03-14T00:56:47;13.43;;;1.98;;
34499;SDS011;20745;50.882;6.962;2023-03-14T00:59:15;8.45;;;1.52;;
34499;SDS011;20745;50.882;6.962;2023-03-14T01:01:41;10.13;;;2.03;;
34499;SDS011;20745;50.882;6.962;2023-03-14T01:04:08;9.80;;;1.58;;
34499;SDS011;20745;50.882;6.962;2023-03-14T01:06:34;9.75;;;1.60;;
34499;SDS011;20745;50.882;6.962;2023-03-14T01:09:01;8.50;;;1.92;;
34499;SDS011;20745;50.882;6.962;2023-03-14T01:11:32;7.68;;;1.73;;
34499;SDS011;20745;50.882;6.962;2023-03-14T01:14:01;10.65;;;1.52;;
34499;SDS011;20745;50.882;6.962;2023-03-14T01:16:29;12.43;;;1.70;;
34499;SDS011;20745;50.882;6.962;2023-03-14T01:18:58;10.50;;;1.50;;
34499;SDS011;20745;50.882;6.962;2023-03-14T01:21:26;10.30;;;1.88;;
34499;SDS011;20745;50.882;6.962;2023-03-14T01:23:57;16.15;;;2.38;;
34499;SDS011;20745;50.882;6.962;2023-03-14T01:26:25;14.70;;;2.05;;
34499;SDS011;20745;50.882;6.962;2023-03-14T01:28:53;13.38;;;1.90;;
34499;SDS011;20745;50.882;6.962;2023-03-14T01:31:21;14.07;;;2.00;;
34499;SDS011;20745;50.882;6.962;2023-03-14T01:33:47;13.73;;;1.70;;
34499;SDS011;20745;50.882;6.962;2023-03-14T01:36:14;13.82;;;1.70;;
34499;SDS011;20745;50.882;6.962;2023-03-14T01:38:41;13.60;;;2.10;;
34499;SDS011;20745;50.882;6.962;2023-03-14T01:41:09;18.95;;;2.10;;
34499;SDS011;20745;50.882;6.962;2023-03-14T01:43:40;7.65;;;1.40;;
34499;SDS011;20745;50.882;6.962;2023-03-14T01:48:57;7.07;;;1.45;;
34499;SDS011;20745;50.882;6.962;2023-03-14T01:54:19;6.72;;;0.90;;
34499;SDS011;20745;50.882;6.962;2023-03-14T01:57:08;7.70;;;1.10;;
34499;SDS011;20745;50.882;6.962;2023-03-14T01:59:40;5.28;;;1.17;;
34499;SDS011;20745;50.882;6.962;2023-03-14T02:02:11;4.63;;;0.80;;
34499;SDS011;20745;50.882;6.962;2023-03-14T02:04:38;8.77;;;1.48;;
34499;SDS011;20745;50.882;6.962;2023-03-14T02:07:09;8.93;;;1.65;;
34499;SDS011;20745;50.882;6.962;2023-03-14T02:09:39;9.40;;;1.85;;
34499;SDS011;20745;50.882;6.962;2023-03-14T02:12:07;9.93;;;1.52;;
34499;SDS011;20745;50.882;6.962;2023-03-14T02:14:36;9.20;;;1.67;;
34499;SDS011;20745;50.882;6.962;2023-03-14T02:17:04;7.85;;;1.67;;
34499;SDS011;20745;50.882;6.962;2023-03-14T02:22:20;10.32;;;1.75;;
34499;SDS011;20745;50.882;6.962;2023-03-14T02:27:53;6.80;;;0.90;;
34499;SDS011;20745;50.882;6.962;2023-03-14T02:30:24;4.93;;;0.77;;
34499;SDS011;20745;50.882;6.962;2023-03-14T02:32:54;6.45;;;1.13;;
34499;SDS011;20745;50.882;6.962;2023-03-14T02:35:27;10.93;;;1.25;;
34499;SDS011;20745;50.882;6.962;2023-03-14T02:40:50;7.72;;;1.48;;
34499;SDS011;20745;50.882;6.962;2023-03-14T02:43:17;6.95;;;1.38;;
34499;SDS011;20745;50.882;6.962;2023-03-14T02:45:47;6.25;;;1.38;;
34499;SDS011;20745;50.882;6.962;2023-03-14T02:48:22;6.90;;;1.10;;
34499;SDS011;20745;50.882;6.962;2023-03-14T02:50:53;5.78;;;0.98;;
34499;SDS011;20745;50.882;6.962;2023-03-14T02:53:26;4.97;;;1.05;;
34499;SDS011;20745;50.882;6.962;2023-03-14T02:55:55;6.55;;;1.23;;
34499;SDS011;20745;50.882;6.962;2023-03-14T02:58:21;7.38;;;1.05;;
34499;SDS011;20745;50.882;6.962;2023-03-14T03:00:48;6.15;;;1.00;;
34499;SDS011;20745;50.882;6.962;2023-03-14T03:03:14;5.70;;;0.82;;
34499;SDS011;20745;50.882;6.962;2023-03-14T03:05:41;7.50;;;1.10;;
34499;SDS011;20745;50.882;6.962;2023-03-14T03:08:11;8.30;;;1.27;;
34499;SDS011;20745;50.882;6.962;2023-03-14T03:10:37;6.20;;;1.20;;
34499;SDS011;20745;50.882;6.962;2023-03-14T03:13:04;7.07;;;1.33;;
34499;SDS011;20745;50.882;6.962;2023-03-14T03:15:30;10.82;;;1.80;;
34499;SDS011;20745;50.882;6.962;2023-03-14T03:17:57;9.50;;;1.63;;
34499;SDS011;20745;50.882;6.962;2023-03-14T03:20:23;11.48;;;1.75;;
34499;SDS011;20745;50.882;6.962;2023-03-14T03:22:50;13.95;;;2.10;;
34499;SDS011;20745;50.882;6.962;2023-03-14T03:25:16;9.82;;;1.63;;
34499;SDS011;20745;50.882;6.962;2023-03-14T03:27:43;9.65;;;1.75;;
34499;SDS011;20745;50.882;6.962;2023-03-14T03:30:10;11.43;;;1.75;;
34499;SDS011;20745;50.882;6.962;2023-03-14T03:32:37;10.95;;;2.03;;
34499;SDS011;20745;50.882;6.962;2023-03-14T03:35:03;10.98;;;1.55;;
34499;SDS011;20745;50.882;6.962;2023-03-14T03:37:31;11.63;;;2.05;;
34499;SDS011;20745;50.882;6.962;2023-03-14T03:39:58;8.10;;;1.50;;
34499;SDS011;20745;50.882;6.962;2023-03-14T03:42:25;12.10;;;2.45;;
34499;SDS011;20745;50.882;6.962;2023-03-14T03:44:55;14.68;;;1.83;;
34499;SDS011;20745;50.882;6.962;2023-03-14T03:47:21;10.00;;;1.70;;
34499;SDS011;20745;50.882;6.962;2023-03-14T03:49:48;9.85;;;1.80;;
34499;SDS011;20745;50.882;6.962;2023-03-14T03:52:14;12.55;;;1.90;;
34499;SDS011;20745;50.882;6.962;2023-03-14T03:54:42;12.00;;;1.98;;
34499;SDS011;20745;50.882;6.962;2023-03-14T03:57:09;11.80;;;2.22;;
34499;SDS011;20745;50.882;6.962;2023-03-14T03:59:35;18.35;;;1.80;;
34499;SDS011;20745;50.882;6.962;2023-03-14T04:02:01;9.50;;;2.10;;
34499;SDS011;20745;50.882;6.962;2023-03-14T04:04:28;14.48;;;2.15;;
34499;SDS011;20745;50.882;6.962;2023-03-14T04:06:55;11.65;;;2.28;;
34499;SDS011;20745;50.882;6.962;2023-03-14T04:09:22;19.30;;;2.08;;
34499;SDS011;20745;50.882;6.962;2023-03-14T04:11:48;11.10;;;1.60;;
34499;SDS011;20745;50.882;6.962;2023-03-14T04:14:15;15.27;;;2.47;;
34499;SDS011;20745;50.882;6.962;2023-03-14T04:16:42;11.52;;;1.85;;
34499;SDS011;20745;50.882;6.962;2023-03-14T04:19:08;10.45;;;1.60;;
34499;SDS011;20745;50.882;6.962;2023-03-14T04:21:35;11.75;;;1.42;;
34499;SDS011;20745;50.882;6.962;2023-03-14T04:24:01;11.52;;;1.70;;
34499;SDS011;20745;50.882;6.962;2023-03-14T04:26:28;15.77;;;1.73;;
34499;SDS011;20745;50.882;6.962;2023-03-14T04:28:54;14.10;;;1.95;;
34499;SDS011;20745;50.882;6.962;2023-03-14T04:31:21;14.13;;;2.25;;
34499;SDS011;20745;50.882;6.962;2023-03-14T04:33:47;12.05;;;1.90;;
34499;SDS011;20745;50.882;6.962;2023-03-14T04:36:14;14.48;;;2.05;;
34499;SDS011;20745;50.882;6.962;2023-03-14T04:38:41;12.73;;;1.95;;
34499;SDS011;20745;50.882;6.962;2023-03-14T04:41:07;11.60;;;2.03;;
34499;SDS011;20745;50.882;6.962;2023-03-14T04:43:34;8.25;;;2.10;;
34499;SDS011;20745;50.882;6.962;2023-03-14T04:46:00;12.35;;;1.63;;
34499;SDS011;20745;50.882;6.962;2023-03-14T04:48:27;10.52;;;1.88;;
34499;SDS011;20745;50.882;6.962;2023-03-14T04:50:53;12.88;;;1.98;;
34499;SDS011;20745;50.882;6.962;2023-03-14T04:53:20;14.48;;;2.38;;
34499;SDS011;20745;50.882;6.962;2023-03-14T04:55:50;10.48;;;1.58;;
34499;SDS011;20745;50.882;6.962;2023-03-14T04:58:17;7.47;;;1.45;;
34499;SDS011;20745;50.882;6.962;2023-03-14T05:00:44;10.50;;;1.35;;
34499;SDS011;20745;50.882;6.962;2023-03-14T05:03:11;8.18;;;1.75;;
34499;SDS011;20745;50.882;6.962;2023-03-14T05:05:38;8.73;;;1.25;;
34499;SDS011;20745;50.882;6.962;2023-03-14T05:08:05;8.35;;;1.65;;
34499;SDS011;20745;50.882;6.962;2023-03-14T05:10:31;8.88;;;1.42;;
34499;SDS011;20745;50.882;6.962;2023-03-14T05:12:58;9.93;;;1.17;;
34499;SDS011;20745;50.882;6.962;2023-03-14T05:15:24;11.73;;;1.27;;
34499;SDS011;20745;50.882;6.962;2023-03-14T05:17:51;5.10;;;0.90;;
34499;SDS011;20745;50.882;6.962;2023-03-14T05:20:18;1.90;;;0.60;;
34499;SDS011;20745;50.882;6.962;2023-03-14T05:22:44;2.35;;;0.55;;
34499;SDS011;20745;50.882;6.962;2023-03-14T05:25:11;3.88;;;0.70;;
34499;SDS011;20745;50.882;6.962;2023-03-14T05:27:37;3.50;;;0.60;;
34499;SDS011;20745;50.882;6.962;2023-03-14T05:30:04;2.47;;;0.50;;
34499;SDS011;20745;50.882;6.962;2023-03-14T05:32:32;3.13;;;0.50;;
34499;SDS011;20745;50.882;6.962;2023-03-14T05:34:58;3.47;;;0.50;;
34499;SDS011;20745;50.882;6.962;2023-03-14T05:37:25;2.15;;;0.47;;
34499;SDS011;20745;50.882;6.962;2023-03-14T05:39:52;1.92;;;0.52;;
34499;SDS011;20745;50.882;6.962;2023-03-14T05:42:19;6.93;;;0.80;;
34499;SDS011;20745;50.882;6.962;2023-03-14T05:44:45;3.30;;;0.80;;
34499;SDS011;20745;50.882;6.962;2023-03-14T05:47:12;2.80;;;0.60;;
34499;SDS011;20745;50.882;6.962;2023-03-14T05:49:38;2.05;;;0.60;;
34499;SDS011;20745;50.882;6.962;2023-03-14T05:52:05;3.08;;;0.90;;
34499;SDS011;20745;50.882;6.962;2023-03-14T05:54:31;2.92;;;0.60;;
34499;SDS011;20745;50.882;6.962;2023-03-14T05:56:58;1.75;;;0.50;;
34499;SDS011;20745;50.882;6.962;2023-03-14T05:59:24;5.45;;;1.00;;
34499;SDS011;20745;50.882;6.962;2023-03-14T06:01:51;5.03;;;0.57;;
34499;SDS011;20745;50.882;6.962;2023-03-14T06:04:17;1.67;;;0.30;;
34499;SDS011;20745;50.882;6.962;2023-03-14T06:06:44;2.17;;;0.40;;
34499;SDS011;20745;50.882;6.962;2023-03-14T06:09:10;4.40;;;0.75;;
34499;SDS011;20745;50.882;6.962;2023-03-14T06:11:37;3.05;;;0.40;;
34499;SDS011;20745;50.882;6.962;2023-03-14T06:14:03;2.78;;;0.38;;
34499;SDS011;20745;50.882;6.962;2023-03-14T06:16:30;2.72;;;0.90;;
34499;SDS011;20745;50.882;6.962;2023-03-14T06:18:58;1.95;;;0.40;;
34499;SDS011;20745;50.882;6.962;2023-03-14T06:21:25;1.88;;;0.50;;
34499;SDS011;20745;50.882;6.962;2023-03-14T06:23:51;1.67;;;0.50;;
34499;SDS011;20745;50.882;6.962;2023-03-14T06:26:18;4.65;;;0.60;;
34499;SDS011;20745;50.882;6.962;2023-03-14T06:28:44;1.20;;;0.30;;
34499;SDS011;20745;50.882;6.962;2023-03-14T06:31:11;2.13;;;0.32;;
34499;SDS011;20745;50.882;6.962;2023-03-14T06:33:37;2.15;;;0.20;;
34499;SDS011;20745;50.882;6.962;2023-03-14T06:36:04;2.05;;;0.90;;
34499;SDS011;20745;50.882;6.962;2023-03-14T06:38:30;2.47;;;0.40;;
34499;SDS011;20745;50.882;6.962;2023-03-14T06:41:02;3.50;;;0.50;;
34499;SDS011;20745;50.882;6.962;2023-03-14T06:43:29;1.52;;;0.20;;
34499;SDS011;20745;50.882;6.962;2023-03-14T06:45:56;1.75;;;0.43;;
34499;SDS011;20745;50.882;6.962;2023-03-14T06:48:22;1.35;;;0.32;;
34499;SDS011;20745;50.882;6.962;2023-03-14T06:50:49;1.95;;;0.30;;
34499;SDS011;20745;50.882;6.962;2023-03-14T06:53:15;1.00;;;0.30;;
34499;SDS011;20745;50.882;6.962;2023-03-14T06:55:42;1.05;;;0.50;;
34499;SDS011;20745;50.882;6.962;2023-03-14T06:58:09;2.17;;;0.40;;
34499;SDS011;20745;50.882;6.962;2023-03-14T07:00:36;3.70;;;0.70;;
34499;SDS011;20745;50.882;6.962;2023-03-14T07:03:02;3.50;;;0.75;;
34499;SDS011;20745;50.882;6.962;2023-03-14T07:05:29;4.65;;;1.02;;
34499;SDS011;20745;50.882;6.962;2023-03-14T07:07:55;2.67;;;1.00;;
34499;SDS011;20745;50.882;6.962;2023-03-14T07:10:22;1.65;;;0.73;;
34499;SDS011;20745;50.882;6.962;2023-03-14T07:12:48;1.85;;;0.50;;
34499;SDS011;20745;50.882;6.962;2023-03-14T07:15:15;0.63;;;0.38;;
34499;SDS011;20745;50.882;6.962;2023-03-14T07:17:44;0.65;;;0.32;;
34499;SDS011;20745;50.882;6.962;2023-03-14T07:20:11;1.17;;;0.30;;
34499;SDS011;20745;50.882;6.962;2023-03-14T07:22:37;1.23;;;0.50;;
34499;SDS011;20745;50.882;6.962;2023-03-14T07:25:04;1.77;;;0.50;;
34499;SDS011;20745;50.882;6.962;2023-03-14T07:27:31;2.28;;;0.55;;
34499;SDS011;20745;50.882;6.962;2023-03-14T07:29:58;3.20;;;0.90;;
34499;SDS011;20745;50.882;6.962;2023-03-14T07:32:24;3.75;;;0.80;;
34499;SDS011;20745;50.882;6.962;2023-03-14T07:34:51;4.55;;;0.95;;
34499;SDS011;20745;50.882;6.962;2023-03-14T07:37:17;3.50;;;0.90;;
34499;SDS011;20745;50.882;6.962;2023-03-14T07:39:43;3.22;;;0.70;;
34499;SDS011;20745;50.882;6.962;2023-03-14T07:42:10;4.40;;;0.90;;
34499;SDS011;20745;50.882;6.962;2023-03-14T07:44:37;2.40;;;0.90;;
34499;SDS011;20745;50.882;6.962;2023-03-14T07:47:03;1.98;;;0.70;;
34499;SDS011;20745;50.882;6.962;2023-03-14T07:49:30;4.75;;;0.57;;
34499;SDS011;20745;50.882;6.962;2023-03-14T07:51:56;1.55;;;0.50;;
34499;SDS011;20745;50.882;6.962;2023-03-14T07:54:24;1.48;;;0.35;;
34499;SDS011;20745;50.882;6.962;2023-03-14T07:56:51;1.17;;;0.32;;
34499;SDS011;20745;50.882;6.962;2023-03-14T07:59:18;1.85;;;0.40;;
34499;SDS011;20745;50.882;6.962;2023-03-14T08:01:45;1.35;;;0.50;;
34499;SDS011;20745;50.882;6.962;2023-03-14T08:04:11;0.38;;;0.13;;
34499;SDS011;20745;50.882;6.962;2023-03-14T08:06:38;0.43;;;0.20;;
34499;SDS011;20745;50.882;6.962;2023-03-14T08:09:04;0.40;;;0.25;;
34499;SDS011;20745;50.882;6.962;2023-03-14T08:11:31;1.52;;;0.80;;
34499;SDS011;20745;50.882;6.962;2023-03-14T08:13:57;0.57;;;0.20;;
34499;SDS011;20745;50.882;6.962;2023-03-14T08:16:24;1.25;;;0.30;;
34499;SDS011;20745;50.882;6.962;2023-03-14T08:18:50;0.40;;;0.25;;
34499;SDS011;20745;50.882;6.962;2023-03-14T08:21:17;1.27;;;0.40;;
34499;SDS011;20745;50.882;6.962;2023-03-14T08:23:43;0.32;;;0.30;;
34499;SDS011;20745;50.882;6.962;2023-03-14T08:26:12;1.20;;;0.45;;
34499;SDS011;20745;50.882;6.962;2023-03-14T08:28:39;1.65;;;0.38;;
34499;SDS011;20745;50.882;6.962;2023-03-14T08:31:05;0.03;;;0.03;;
34499;SDS011;20745;50.882;6.962;2023-03-14T08:33:32;0.10;;;0.10;;
34499;SDS011;20745;50.882;6.962;2023-03-14T08:35:59;0.55;;;0.20;;
34499;SDS011;20745;50.882;6.962;2023-03-14T08:38:26;0.98;;;0.30;;
34499;SDS011;20745;50.882;6.962;2023-03-14T08:40:59;0.52;;;0.28;;
34499;SDS011;20745;50.882;6.962;2023-03-14T08:43:28;2.95;;;0.60;;
34499;SDS011;20745;50.882;6.962;2023-03-14T08:45:58;0.38;;;0.20;;
34499;SDS011;20745;50.882;6.962;2023-03-14T08:48:26;0.63;;;0.30;;
34499;SDS011;20745;50.882;6.962;2023-03-14T08:50:52;0.95;;;0.38;;
34499;SDS011;20745;50.882;6.962;2023-03-14T08:53:19;0.43;;;0.32;;
34499;SDS011;20745;50.882;6.962;2023-03-14T08:55:47;0.00;;;0.00;;
34499;SDS011;20745;50.882;6.962;2023-03-14T08:58:13;2.20;;;0.30;;
34499;SDS011;20745;50.882;6.962;2023-03-14T09:00:39;0.90;;;0.52;;
34499;SDS011;20745;50.882;6.962;2023-03-14T09:03:06;0.30;;;0.30;;
34499;SDS011;20745;50.882;6.962;2023-03-14T09:05:33;2.08;;;0.55;;
34499;SDS011;20745;50.882;6.962;2023-03-14T09:08:00;1.27;;;0.40;;
34499;SDS011;20745;50.882;6.962;2023-03-14T09:10:27;1.33;;;0.30;;
34499;SDS011;20745;50.882;6.962;2023-03-14T09:12:53;0.40;;;0.20;;
34499;SDS011;20745;50.882;6.962;2023-03-14T09:15:20;1.38;;;0.30;;
34499;SDS011;20745;50.882;6.962;2023-03-14T09:17:46;2.40;;;0.65;;
34499;SDS011;20745;50.882;6.962;2023-03-14T09:20:13;3.47;;;0.57;;
34499;SDS011;20745;50.882;6.962;2023-03-14T09:22:40;5.22;;;0.70;;
34499;SDS011;20745;50.882;6.962;2023-03-14T09:25:07;1.90;;;0.77;;
34499;SDS011;20745;50.882;6.962;2023-03-14T09:27:34;2.50;;;0.70;;
34499;SDS011;20745;50.882;6.962;2023-03-14T09:30:00;2.15;;;0.57;;
34499;SDS011;20745;50.882;6.962;2023-03-14T09:32:27;3.67;;;0.70;;
34499;SDS011;20745;50.882;6.962;2023-03-14T09:34:53;3.03;;;0.68;;
34499;SDS011;20745;50.882;6.962;2023-03-14T09:37:20;3.08;;;0.68;;
34499;SDS011;20745;50.882;6.962;2023-03-14T09:39:47;4.72;;;0.85;;
34499;SDS011;20745;50.882;6.962;2023-03-14T09:42:14;5.88;;;0.73;;
34499;SDS011;20745;50.882;6.962;2023-03-14T09:44:51;5.57;;;0.90;;
34499;SDS011;20745;50.882;6.962;2023-03-14T09:47:33;9.85;;;0.90;;
34499;SDS011;20745;50.882;6.962;2023-03-14T09:50:03;3.70;;;1.00;;
34499;SDS011;20745;50.882;6.962;2023-03-14T09:52:32;3.40;;;1.10;;
34499;SDS011;20745;50.882;6.962;2023-03-14T09:55:04;4.07;;;1.10;;
34499;SDS011;20745;50.882;6.962;2023-03-14T09:57:48;3.85;;;1.00;;
34499;SDS011;20745;50.882;6.962;2023-03-14T10:00:18;5.88;;;0.90;;
34499;SDS011;20745;50.882;6.962;2023-03-14T10:02:51;6.15;;;1.23;;
34499;SDS011;20745;50.882;6.962;2023-03-14T10:05:21;10.95;;;1.73;;
34499;SDS011;20745;50.882;6.962;2023-03-14T10:07:49;2.43;;;1.00;;
34499;SDS011;20745;50.882;6.962;2023-03-14T10:10:17;5.53;;;1.50;;
34499;SDS011;20745;50.882;6.962;2023-03-14T10:12:55;4.63;;;1.20;;
34499;SDS011;20745;50.882;6.962;2023-03-14T10:15:33;7.47;;;1.75;;
34499;SDS011;20745;50.882;6.962;2023-03-14T10:18:01;6.03;;;1.80;;
34499;SDS011;20745;50.882;6.962;2023-03-14T10:20:31;9.00;;;1.90;;
34499;SDS011;20745;50.882;6.962;2023-03-14T10:23:01;7.70;;;2.20;;
34499;SDS011;20745;50.882;6.962;2023-03-14T10:25:31;5.88;;;1.52;;
34499;SDS011;20745;50.882;6.962;2023-03-14T10:28:00;6.80;;;1.60;;
34499;SDS011;20745;50.882;6.962;2023-03-14T10:30:33;5.78;;;1.63;;
34499;SDS011;20745;50.882;6.962;2023-03-14T10:33:15;5.70;;;1.50;;
34499;SDS011;20745;50.882;6.962;2023-03-14T10:35:46;8.38;;;1.80;;
34499;SDS011;20745;50.882;6.962;2023-03-14T10:38:18;4.82;;;1.50;;
34499;SDS011;20745;50.882;6.962;2023-03-14T10:40:49;7.78;;;1.63;;
34499;SDS011;20745;50.882;6.962;2023-03-14T10:43:19;10.02;;;2.53;;
34499;SDS011;20745;50.882;6.962;2023-03-14T10:45:57;6.93;;;1.75;;
34499;SDS011;20745;50.882;6.962;2023-03-14T10:48:38;8.57;;;1.98;;
34499;SDS011;20745;50.882;6.962;2023-03-14T10:51:12;9.00;;;2.30;;
34499;SDS011;20745;50.882;6.962;2023-03-14T10:53:58;10.05;;;2.90;;
34499;SDS011;20745;50.882;6.962;2023-03-14T10:56:27;11.25;;;3.20;;
34499;SDS011;20745;50.882;6.962;2023-03-14T10:59:00;11.73;;;2.80;;
34499;SDS011;20745;50.882;6.962;2023-03-14T11:20:58;5.78;;;1.52;;
34499;SDS011;20745;50.882;6.962;2023-03-14T11:26:38;6.00;;;1.88;;
34499;SDS011;20745;50.882;6.962;2023-03-14T11:29:16;9.30;;;1.75;;
34499;SDS011;20745;50.882;6.962;2023-03-14T11:32:04;9.90;;;1.90;;
34499;SDS011;20745;50.882;6.962;2023-03-14T11:34:41;5.88;;;1.65;;
34499;SDS011;20745;50.882;6.962;2023-03-14T11:39:57;5.50;;;1.42;;
34499;SDS011;20745;50.882;6.962;2023-03-14T11:42:32;4.72;;;1.60;;
34499;SDS011;20745;50.882;6.962;2023-03-14T11:44:58;6.53;;;1.83;;
34499;SDS011;20745;50.882;6.962;2023-03-14T11:47:32;11.25;;;2.63;;
34499;SDS011;20745;50.882;6.962;2023-03-14T11:50:14;6.88;;;1.98;;
34499;SDS011;20745;50.882;6.962;2023-03-14T11:55:24;4.25;;;0.90;;
34499;SDS011;20745;50.882;6.962;2023-03-14T11:57:56;3.78;;;0.85;;
34499;SDS011;20745;50.882;6.962;2023-03-14T12:00:44;3.30;;;0.90;;
34499;SDS011;20745;50.882;6.962;2023-03-14T12:03:17;5.07;;;0.60;;
34499;SDS011;20745;50.882;6.962;2023-03-14T12:11:39;4.95;;;1.17;;
34499;SDS011;20745;50.882;6.962;2023-03-14T12:14:21;6.95;;;1.20;;
34499;SDS011;20745;50.882;6.962;2023-03-14T12:17:33;6.22;;;1.25;;
34499;SDS011;20745;50.882;6.962;2023-03-14T12:19:46;9.00;;;1.63;;
34499;SDS011;20745;50.882;6.962;2023-03-14T12:24:49;9.90;;;1.80;;
34499;SDS011;20745;50.882;6.962;2023-03-14T12:30:23;10.45;;;2.00;;
34499;SDS011;20745;50.882;6.962;2023-03-14T12:35:57;5.60;;;1.50;;
34499;SDS011;20745;50.882;6.962;2023-03-14T12:49:47;4.78;;;1.20;;
34499;SDS011;20745;50.882;6.962;2023-03-14T12:52:19;7.88;;;1.40;;
34499;SDS011;20745;50.882;6.962;2023-03-14T12:57:23;5.70;;;1.30;;
34499;SDS011;20745;50.882;6.962;2023-03-14T12:59:52;6.45;;;1.25;;
34499;SDS011;20745;50.882;6.962;2023-03-14T13:02:29;5.78;;;1.42;;
34499;SDS011;20745;50.882;6.962;2023-03-14T13:10:16;5.72;;;1.17;;
34499;SDS011;20745;50.882;6.962;2023-03-14T13:12:49;6.70;;;1.30;;
34499;SDS011;20745;50.882;6.962;2023-03-14T13:15:21;5.80;;;1.40;;
34499;SDS011;20745;50.882;6.962;2023-03-14T13:17:52;5.70;;;1.40;;
34499;SDS011;20745;50.882;6.962;2023-03-14T13:20:24;6.13;;;1.35;;
34499;SDS011;20745;50.882;6.962;2023-03-14T13:23:01;5.30;;;1.33;;
34499;SDS011;20745;50.882;6.962;2023-03-14T13:25:29;11.52;;;1.50;;
34499;SDS011;20745;50.882;6.962;2023-03-14T13:27:59;6.30;;;1.20;;
34499;SDS011;20745;50.882;6.962;2023-03-14T13:30:28;13.00;;;1.75;;
34499;SDS011;20745;50.882;6.962;2023-03-14T13:33:03;10.30;;;1.40;;
34499;SDS011;20745;50.882;6.962;2023-03-14T13:35:38;8.43;;;1.70;;
34499;SDS011;20745;50.882;6.962;2023-03-14T13:38:20;5.60;;;1.20;;
34499;SDS011;20745;50.882;6.962;2023-03-14T13:40:51;7.47;;;1.35;;
34499;SDS011;20745;50.882;6.962;2023-03-14T13:46:06;9.18;;;1.63;;
34499;SDS011;20745;50.882;6.962;2023-03-14T13:48:47;8.55;;;1.35;;
34499;SDS011;20745;50.882;6.962;2023-03-14T13:51:26;9.48;;;1.50;;
34499;SDS011;20745;50.882;6.962;2023-03-14T13:53:57;12.32;;;2.15;;
34499;SDS011;20745;50.882;6.962;2023-03-14T13:56:30;7.22;;;1.40;;
34499;SDS011;20745;50.882;6.962;2023-03-14T13:58:58;13.85;;;1.80;;
34499;SDS011;20745;50.882;6.962;2023-03-14T14:01:26;9.63;;;1.77;;
34499;SDS011;20745;50.882;6.962;2023-03-14T14:03:58;13.75;;;2.13;;
34499;SDS011;20745;50.882;6.962;2023-03-14T14:06:38;17.52;;;2.20;;
34499;SDS011;20745;50.882;6.962;2023-03-14T14:09:17;8.73;;;1.58;;
34499;SDS011;20745;50.882;6.962;2023-03-14T14:12:06;17.52;;;2.33;;
34499;SDS011;20745;50.882;6.962;2023-03-14T14:14:46;15.85;;;2.53;;
34499;SDS011;20745;50.882;6.962;2023-03-14T14:17:21;21.98;;;2.70;;
34499;SDS011;20745;50.882;6.962;2023-03-14T14:19:52;17.58;;;2.58;;
34499;SDS011;20745;50.882;6.962;2023-03-14T14:22:22;18.42;;;3.00;;
34499;SDS011;20745;50.882;6.962;2023-03-14T14:24:49;18.15;;;2.40;;
34499;SDS011;20745;50.882;6.962;2023-03-14T14:27:19;17.67;;;2.53;;
34499;SDS011;20745;50.882;6.962;2023-03-14T14:30:00;17.10;;;2.45;;
34499;SDS011;20745;50.882;6.962;2023-03-14T14:32:39;19.95;;;2.80;;
34499;SDS011;20745;50.882;6.962;2023-03-14T14:35:07;24.98;;;3.13;;
34499;SDS011;20745;50.882;6.962;2023-03-14T14:37:43;21.83;;;3.70;;
34499;SDS011;20745;50.882;6.962;2023-03-14T14:40:20;19.35;;;3.33;;
34499;SDS011;20745;50.882;6.962;2023-03-14T14:42:47;24.73;;;2.80;;
34499;SDS011;20745;50.882;6.962;2023-03-14T14:45:24;23.90;;;3.30;;
34499;SDS011;20745;50.882;6.962;2023-03-14T14:47:54;18.38;;;2.67;;
34499;SDS011;20745;50.882;6.962;2023-03-14T14:53:21;23.00;;;3.17;;
34499;SDS011;20745;50.882;6.962;2023-03-14T14:55:51;18.88;;;3.20;;
34499;SDS011;20745;50.882;6.962;2023-03-14T14:58:22;23.50;;;3.83;;
34499;SDS011;20745;50.882;6.962;2023-03-14T15:00:50;15.57;;;2.60;;
34499;SDS011;20745;50.882;6.962;2023-03-14T15:03:20;19.77;;;2.95;;
34499;SDS011;20745;50.882;6.962;2023-03-14T15:05:46;14.00;;;2.38;;
34499;SDS011;20745;50.882;6.962;2023-03-14T15:08:13;22.30;;;3.30;;
34499;SDS011;20745;50.882;6.962;2023-03-14T15:10:39;22.48;;;3.63;;
34499;SDS011;20745;50.882;6.962;2023-03-14T15:13:06;21.38;;;3.33;;
34499;SDS011;20745;50.882;6.962;2023-03-14T15:15:32;25.58;;;3.08;;
34499;SDS011;20745;50.882;6.962;2023-03-14T15:18:00;20.00;;;3.63;;
34499;SDS011;20745;50.882;6.962;2023-03-14T15:20:27;22.33;;;3.97;;
34499;SDS011;20745;50.882;6.962;2023-03-14T15:22:53;22.48;;;3.75;;
34499;SDS011;20745;50.882;6.962;2023-03-14T15:25:20;20.10;;;3.13;;
34499;SDS011;20745;50.882;6.962;2023-03-14T15:28:11;22.70;;;3.25;;
34499;SDS011;20745;50.882;6.962;2023-03-14T15:30:39;22.38;;;3.85;;
34499;SDS011;20745;50.882;6.962;2023-03-14T15:33:06;26.77;;;3.53;;
34499;SDS011;20745;50.882;6.962;2023-03-14T15:35:36;19.65;;;2.90;;
34499;SDS011;20745;50.882;6.962;2023-03-14T15:38:03;28.17;;;3.47;;
34499;SDS011;20745;50.882;6.962;2023-03-14T15:40:29;23.27;;;3.67;;
34499;SDS011;20745;50.882;6.962;2023-03-14T15:42:56;24.05;;;4.10;;
34499;SDS011;20745;50.882;6.962;2023-03-14T15:45:23;25.85;;;3.78;;
34499;SDS011;20745;50.882;6.962;2023-03-14T15:47:49;30.55;;;3.75;;
34499;SDS011;20745;50.882;6.962;2023-03-14T15:50:16;22.33;;;3.38;;
34499;SDS011;20745;50.882;6.962;2023-03-14T15:52:42;28.27;;;3.80;;
34499;SDS011;20745;50.882;6.962;2023-03-14T15:55:09;22.95;;;4.20;;
34499;SDS011;20745;50.882;6.962;2023-03-14T15:57:35;23.25;;;3.83;;
34499;SDS011;20745;50.882;6.962;2023-03-14T16:00:02;18.42;;;3.78;;
34499;SDS011;20745;50.882;6.962;2023-03-14T16:02:30;19.50;;;3.55;;
34499;SDS011;20745;50.882;6.962;2023-03-14T16:04:57;21.48;;;3.95;;
34499;SDS011;20745;50.882;6.962;2023-03-14T16:07:23;23.83;;;2.83;;
34499;SDS011;20745;50.882;6.962;2023-03-14T16:09:50;17.13;;;3.05;;
34499;SDS011;20745;50.882;6.962;2023-03-14T16:12:16;22.27;;;3.65;;
34499;SDS011;20745;50.882;6.962;2023-03-14T16:14:43;19.55;;;2.95;;